Time;durP1;ratioP1;P1;durP2;ratioP2;P2;SDS_P1;SDS_P2;PMS_P1;PMS_P2;Temp;Humidity;BMP_temperature;BMP_pressure;BME280_temperature;BME280_humidity;BME280_pressure;Samples;Min_cycle;Max_cycle;Signal;HPM_P1;HPM_P2
2021/09/03 00:02:23;;;;;;;13.20;7.90;;;;;;;;;;5079526;28;20468;-71
2021/09/03 00:04:51;;;;;;;6.80;5.40;;;;;;;;;;5079215;28;20487;-71
2021/09/03 00:07:21;;;;;;;7.70;5.57;;;;;;;;;;5079190;28;20464;-71
2021/09/03 00:09:48;;;;;;;7.87;5.60;;;;;;;;;;5079083;28;21540;-70
2021/09/03 00:12:18;;;;;;;11.27;6.40;;;;;;;;;;5070072;28;20473;-70
2021/09/03 00:14:45;;;;;;;10.50;6.87;;;;;;;;;;5078767;28;20456;-72
2021/09/03 00:17:13;;;;;;;8.80;6.50;;;;;;;;;;5079153;28;20496;-70
2021/09/03 00:19:41;;;;;;;7.90;6.03;;;;;;;;;;5079352;28;20465;-71
2021/09/03 00:22:09;;;;;;;8.23;6.50;;;;;;;;;;5079200;28;20492;-71
2021/09/03 00:24:37;;;;;;;12.70;6.60;;;;;;;;;;5078829;28;20449;-72
2021/09/03 00:27:05;;;;;;;9.73;5.70;;;;;;;;;;5078787;28;20452;-72
2021/09/03 00:29:34;;;;;;;13.40;7.80;;;;;;;;;;5078266;28;20519;-71
2021/09/03 00:32:02;;;;;;;6.53;5.30;;;;;;;;;;5077764;28;20554;-71
2021/09/03 00:34:30;;;;;;;9.20;6.50;;;;;;;;;;5078336;28;20475;-70
2021/09/03 00:36:58;;;;;;;8.03;6.30;;;;;;;;;;5078555;28;20463;-71
2021/09/03 00:39:26;;;;;;;9.30;6.90;;;;;;;;;;5078401;28;20542;-71
2021/09/03 00:41:53;;;;;;;7.00;5.57;;;;;;;;;;5078097;28;20456;-72
2021/09/03 00:44:21;;;;;;;11.10;6.40;;;;;;;;;;5077291;28;20460;-70
2021/09/03 00:46:50;;;;;;;10.47;7.20;;;;;;;;;;5078744;28;20453;-72
2021/09/03 00:49:18;;;;;;;10.20;6.43;;;;;;;;;;5069346;28;20491;-71
2021/09/03 00:51:46;;;;;;;11.67;6.00;;;;;;;;;;5078066;28;20455;-71
2021/09/03 00:54:14;;;;;;;9.70;6.30;;;;;;;;;;5077734;28;20471;-71
2021/09/03 00:56:43;;;;;;;11.57;6.10;;;;;;;;;;5078274;28;20468;-71
2021/09/03 00:59:11;;;;;;;11.73;6.60;;;;;;;;;;5077926;28;20468;-71
2021/09/03 01:01:39;;;;;;;8.03;6.23;;;;;;;;;;5078408;28;20452;-71
2021/09/03 01:04:08;;;;;;;9.23;6.63;;;;;;;;;;5078522;28;20464;-71
2021/09/03 01:06:36;;;;;;;9.67;5.83;;;;;;;;;;5078104;28;20883;-71
2021/09/03 01:09:04;;;;;;;11.27;6.60;;;;;;;;;;5077817;28;20834;-71
2021/09/03 01:11:31;;;;;;;15.00;6.33;;;;;;;;;;5077963;28;20456;-71
2021/09/03 01:13:59;;;;;;;11.33;6.70;;;;;;;;;;5078312;28;20957;-71
2021/09/03 01:16:27;;;;;;;12.03;6.80;;;;;;;;;;5077789;28;20451;-71
2021/09/03 01:18:55;;;;;;;10.60;5.73;;;;;;;;;;5078096;28;20895;-71
2021/09/03 01:21:24;;;;;;;9.33;6.20;;;;;;;;;;5078058;28;20459;-71
2021/09/03 01:23:53;;;;;;;10.17;5.87;;;;;;;;;;5077609;28;20555;-71
2021/09/03 01:26:21;;;;;;;6.60;5.23;;;;;;;;;;5077723;28;20514;-71
2021/09/03 01:28:49;;;;;;;8.70;6.70;;;;;;;;;;5077803;28;20480;-71
2021/09/03 01:31:17;;;;;;;9.67;6.07;;;;;;;;;;5077729;28;20835;-71
2021/09/03 01:33:49;;;;;;;11.00;7.53;;;;;;;;;;5077807;28;20900;-71
2021/09/03 01:36:16;;;;;;;9.77;5.70;;;;;;;;;;5077230;28;20465;-71
2021/09/03 01:38:47;;;;;;;7.87;5.80;;;;;;;;;;5077407;28;20526;-71
2021/09/03 01:41:17;;;;;;;13.43;6.20;;;;;;;;;;5077212;28;20812;-71
2021/09/03 01:43:44;;;;;;;10.83;6.40;;;;;;;;;;5076862;28;20464;-71
2021/09/03 01:46:12;;;;;;;7.00;4.70;;;;;;;;;;5077370;28;20461;-71
2021/09/03 01:48:40;;;;;;;10.90;6.23;;;;;;;;;;5077198;28;20491;-71
2021/09/03 01:51:08;;;;;;;11.63;6.50;;;;;;;;;;5076335;28;20861;-71
2021/09/03 01:53:41;;;;;;;14.37;7.33;;;;;;;;;;5077253;28;20725;-71
2021/09/03 01:56:09;;;;;;;9.40;6.43;;;;;;;;;;5077087;28;20561;-71
2021/09/03 01:58:41;;;;;;;9.87;6.97;;;;;;;;;;5077049;28;20547;-71
2021/09/03 02:01:11;;;;;;;9.83;5.60;;;;;;;;;;5077210;28;20472;-71
2021/09/03 02:03:38;;;;;;;17.33;6.77;;;;;;;;;;5076854;28;20530;-71
2021/09/03 02:06:06;;;;;;;10.17;6.40;;;;;;;;;;5077071;28;20547;-71
2021/09/03 02:08:34;;;;;;;9.20;6.90;;;;;;;;;;5076959;28;20456;-71
2021/09/03 02:11:05;;;;;;;10.53;7.73;;;;;;;;;;5076804;28;20507;-71
2021/09/03 02:13:33;;;;;;;11.80;6.27;;;;;;;;;;5077518;28;20452;-71
2021/09/03 02:16:02;;;;;;;10.20;6.43;;;;;;;;;;5077065;28;20517;-71
2021/09/03 02:18:30;;;;;;;9.10;6.47;;;;;;;;;;5077086;28;20465;-72
2021/09/03 02:20:57;;;;;;;14.30;8.90;;;;;;;;;;5076912;28;20461;-69
2021/09/03 02:23:25;;;;;;;10.20;6.70;;;;;;;;;;5076834;28;20457;-70
2021/09/03 02:25:53;;;;;;;13.07;7.47;;;;;;;;;;5077137;28;20778;-71
2021/09/03 02:28:21;;;;;;;14.70;6.90;;;;;;;;;;5077099;28;20474;-71
2021/09/03 02:30:48;;;;;;;13.13;7.50;;;;;;;;;;5077167;28;20542;-71
2021/09/03 02:33:18;;;;;;;9.50;6.77;;;;;;;;;;5077355;28;20469;-71
2021/09/03 02:35:46;;;;;;;12.70;7.27;;;;;;;;;;5077138;28;20923;-71
2021/09/03 02:38:13;;;;;;;10.73;8.10;;;;;;;;;;5076795;28;20867;-71
2021/09/03 02:40:41;;;;;;;10.70;7.10;;;;;;;;;;5076260;28;20475;-71
2021/09/03 02:43:09;;;;;;;13.33;7.13;;;;;;;;;;5076512;28;20880;-71
2021/09/03 02:45:37;;;;;;;10.77;7.17;;;;;;;;;;5076763;28;20468;-71
2021/09/03 02:48:05;;;;;;;17.30;8.00;;;;;;;;;;5076793;28;20452;-71
2021/09/03 02:50:34;;;;;;;10.17;7.27;;;;;;;;;;5076770;28;20513;-71
2021/09/03 02:53:02;;;;;;;12.60;7.13;;;;;;;;;;5076962;28;20727;-71
2021/09/03 02:55:30;;;;;;;7.80;6.87;;;;;;;;;;5080760;28;20478;-71
2021/09/03 02:57:58;;;;;;;13.53;7.23;;;;;;;;;;5081005;28;20465;-71
2021/09/03 03:00:27;;;;;;;13.27;7.17;;;;;;;;;;5080681;28;20468;-71
2021/09/03 03:02:54;;;;;;;10.17;6.57;;;;;;;;;;5080640;28;20452;-71
2021/09/03 03:05:23;;;;;;;11.03;6.70;;;;;;;;;;5080499;28;20905;-71
2021/09/03 03:07:52;;;;;;;9.30;6.30;;;;;;;;;;5080555;28;20456;-71
2021/09/03 03:10:20;;;;;;;9.70;6.90;;;;;;;;;;5080197;28;20748;-71
2021/09/03 03:12:52;;;;;;;13.20;7.40;;;;;;;;;;5079801;28;20460;-71
2021/09/03 03:15:20;;;;;;;11.23;6.20;;;;;;;;;;5079655;28;20468;-71
2021/09/03 03:17:48;;;;;;;11.93;6.60;;;;;;;;;;5080454;28;20650;-71
2021/09/03 03:20:17;;;;;;;8.57;5.77;;;;;;;;;;5080025;28;20549;-71
2021/09/03 03:22:45;;;;;;;8.93;6.77;;;;;;;;;;5080028;28;20748;-71
2021/09/03 03:25:15;;;;;;;10.90;6.23;;;;;;;;;;5079846;28;20453;-71
2021/09/03 03:27:46;;;;;;;13.77;8.37;;;;;;;;;;5079855;28;21053;-71
2021/09/03 03:30:15;;;;;;;10.37;7.70;;;;;;;;;;5079590;28;20900;-71
2021/09/03 03:32:42;;;;;;;14.93;8.60;;;;;;;;;;5079826;28;20457;-71
2021/09/03 03:35:13;;;;;;;11.97;7.03;;;;;;;;;;5079884;28;20467;-71
2021/09/03 03:37:44;;;;;;;10.67;7.40;;;;;;;;;;5078997;28;20471;-71
2021/09/03 03:40:14;;;;;;;8.83;6.63;;;;;;;;;;5079842;28;20475;-71
2021/09/03 03:42:42;;;;;;;9.10;6.63;;;;;;;;;;5079341;28;20453;-71
2021/09/03 03:45:11;;;;;;;10.40;7.20;;;;;;;;;;5079352;28;20479;-70
2021/09/03 03:47:39;;;;;;;10.50;7.43;;;;;;;;;;5079524;28;20467;-70
2021/09/03 03:50:07;;;;;;;13.97;8.23;;;;;;;;;;5079199;28;20488;-71
2021/09/03 03:52:35;;;;;;;12.97;6.50;;;;;;;;;;5079322;28;20572;-70
2021/09/03 03:55:03;;;;;;;10.13;6.80;;;;;;;;;;5079391;28;20465;-70
2021/09/03 03:57:32;;;;;;;9.83;6.77;;;;;;;;;;5079953;28;20453;-70
2021/09/03 04:00:03;;;;;;;14.83;6.70;;;;;;;;;;5078861;28;20474;-70
2021/09/03 04:02:31;;;;;;;9.20;6.57;;;;;;;;;;5079484;28;20744;-70
2021/09/03 04:04:59;;;;;;;14.00;6.70;;;;;;;;;;5078507;28;20472;-70
2021/09/03 04:07:29;;;;;;;10.40;6.93;;;;;;;;;;5078942;28;20448;-71
2021/09/03 04:09:57;;;;;;;13.47;6.50;;;;;;;;;;5078628;28;20488;-71
2021/09/03 04:12:25;;;;;;;13.03;7.73;;;;;;;;;;5078751;28;20453;-71
2021/09/03 04:14:57;;;;;;;13.07;7.30;;;;;;;;;;5078653;28;20492;-71
2021/09/03 04:17:25;;;;;;;10.80;6.10;;;;;;;;;;5078976;28;20532;-71
2021/09/03 04:19:53;;;;;;;10.33;7.27;;;;;;;;;;5078865;28;20475;-71
2021/09/03 04:22:21;;;;;;;13.17;8.67;;;;;;;;;;5078655;28;20552;-71
2021/09/03 04:24:49;;;;;;;12.80;7.50;;;;;;;;;;5078968;28;20895;-71
2021/09/03 04:27:17;;;;;;;9.30;6.07;;;;;;;;;;5078799;28;20845;-71
2021/09/03 04:29:45;;;;;;;12.27;6.87;;;;;;;;;;5078860;28;20496;-71
2021/09/03 04:32:14;;;;;;;11.70;6.80;;;;;;;;;;5078550;28;20482;-71
2021/09/03 04:34:42;;;;;;;11.37;7.43;;;;;;;;;;5078296;28;20480;-71
2021/09/03 04:37:12;;;;;;;11.63;8.07;;;;;;;;;;5078419;28;21016;-71
2021/09/03 04:39:40;;;;;;;10.60;7.50;;;;;;;;;;5087441;28;20899;-70
2021/09/03 04:42:08;;;;;;;11.90;7.40;;;;;;;;;;5098440;28;20451;-71
2021/09/03 04:44:36;;;;;;;11.53;7.83;;;;;;;;;;5098411;28;20466;-71
2021/09/03 04:47:04;;;;;;;10.87;7.80;;;;;;;;;;5098750;28;20791;-71
2021/09/03 04:49:33;;;;;;;13.40;8.47;;;;;;;;;;5097840;28;20903;-71
2021/09/03 04:52:01;;;;;;;13.27;6.37;;;;;;;;;;5077657;28;20726;-71
2021/09/03 04:54:29;;;;;;;11.23;6.90;;;;;;;;;;5077920;28;20895;-71
2021/09/03 04:56:57;;;;;;;11.20;7.10;;;;;;;;;;5077882;28;20468;-72
2021/09/03 04:59:24;;;;;;;14.43;6.73;;;;;;;;;;5077012;28;20471;-71
2021/09/03 05:01:52;;;;;;;11.40;7.17;;;;;;;;;;5076424;28;20457;-72
2021/09/03 05:04:20;;;;;;;9.57;6.30;;;;;;;;;;5076725;28;20856;-71
2021/09/03 05:06:49;;;;;;;12.37;7.47;;;;;;;;;;5075833;28;20744;-72
2021/09/03 05:09:17;;;;;;;9.00;7.03;;;;;;;;;;5076617;28;20469;-71
2021/09/03 05:11:45;;;;;;;11.30;7.83;;;;;;;;;;5076371;28;20879;-72
2021/09/03 05:14:13;;;;;;;14.57;8.50;;;;;;;;;;5076291;28;20459;-71
2021/09/03 05:16:42;;;;;;;12.10;7.93;;;;;;;;;;5083262;28;20456;-71
2021/09/03 05:19:10;;;;;;;10.60;6.67;;;;;;;;;;5095479;27;20484;-71
2021/09/03 05:21:38;;;;;;;20.73;14.93;;;;;;;;;;5095361;27;20456;-71
2021/09/03 05:24:08;;;;;;;17.40;8.53;;;;;;;;;;5080989;28;20483;-72
2021/09/03 05:26:36;;;;;;;13.43;7.20;;;;;;;;;;5082466;28;20811;-71
2021/09/03 05:29:04;;;;;;;15.57;7.23;;;;;;;;;;5096522;28;20548;-71
2021/09/03 05:31:32;;;;;;;13.17;8.00;;;;;;;;;;5096763;28;20534;-72
2021/09/03 05:34:00;;;;;;;14.30;8.53;;;;;;;;;;5095690;28;20456;-71
2021/09/03 05:36:28;;;;;;;11.50;7.57;;;;;;;;;;5095385;28;20879;-71
2021/09/03 05:38:56;;;;;;;11.53;7.77;;;;;;;;;;5092446;28;20463;-71
2021/09/03 05:41:25;;;;;;;16.00;7.93;;;;;;;;;;5075278;28;20457;-71
2021/09/03 05:43:53;;;;;;;9.53;6.40;;;;;;;;;;5075060;28;20563;-71
2021/09/03 05:46:21;;;;;;;10.63;7.30;;;;;;;;;;5075135;28;20479;-71
2021/09/03 05:48:49;;;;;;;15.13;8.83;;;;;;;;;;5075272;28;20456;-71
2021/09/03 05:51:16;;;;;;;14.00;8.00;;;;;;;;;;5079559;28;20976;-72
2021/09/03 05:53:44;;;;;;;16.40;8.87;;;;;;;;;;5075206;28;20510;-72
2021/09/03 05:56:15;;;;;;;15.07;9.67;;;;;;;;;;5075089;28;20460;-70
2021/09/03 05:58:45;;;;;;;15.43;8.13;;;;;;;;;;5074598;28;20846;-71
2021/09/03 06:01:13;;;;;;;13.00;8.73;;;;;;;;;;5092500;28;20542;-70
2021/09/03 06:03:42;;;;;;;12.67;7.67;;;;;;;;;;5095028;28;20555;-71
2021/09/03 06:06:10;;;;;;;13.90;8.73;;;;;;;;;;5095646;28;20455;-70
2021/09/03 06:08:38;;;;;;;15.47;9.27;;;;;;;;;;5077791;28;20475;-71
2021/09/03 06:11:06;;;;;;;16.20;8.90;;;;;;;;;;5083327;28;20511;-71
2021/09/03 06:13:35;;;;;;;17.13;10.67;;;;;;;;;;5081981;28;20467;-71
2021/09/03 06:16:05;;;;;;;18.17;10.73;;;;;;;;;;5075653;28;20469;-71
2021/09/03 06:18:33;;;;;;;16.80;8.30;;;;;;;;;;5075337;28;20459;-71
2021/09/03 06:21:01;;;;;;;16.60;9.60;;;;;;;;;;5075716;28;20795;-71
2021/09/03 06:23:31;;;;;;;19.27;11.07;;;;;;;;;;5075176;28;20805;-71
2021/09/03 06:25:59;;;;;;;19.73;10.40;;;;;;;;;;5075937;28;20464;-71
2021/09/03 06:28:27;;;;;;;25.20;13.40;;;;;;;;;;5075746;28;20568;-72
2021/09/03 06:30:55;;;;;;;22.80;10.30;;;;;;;;;;5098253;28;20571;-71
2021/09/03 06:33:25;;;;;;;20.50;10.13;;;;;;;;;;5116093;28;20461;-71
2021/09/03 06:35:55;;;;;;;20.83;11.07;;;;;;;;;;5112123;28;20926;-71
2021/09/03 06:38:23;;;;;;;18.13;11.20;;;;;;;;;;5080008;28;20860;-71
2021/09/03 06:40:51;;;;;;;17.87;10.10;;;;;;;;;;5082705;28;20499;-71
2021/09/03 06:43:19;;;;;;;17.90;12.50;;;;;;;;;;5095854;28;20471;-71
2021/09/03 06:45:47;;;;;;;24.03;12.27;;;;;;;;;;5093747;28;20459;-71
2021/09/03 06:48:22;;;;;;;25.37;12.23;;;;;;;;;;5074816;28;20444;-71
2021/09/03 06:50:53;;;;;;;18.90;11.10;;;;;;;;;;5075678;28;21125;-70
2021/09/03 06:53:22;;;;;;;16.53;10.80;;;;;;;;;;5091585;28;20460;-71
2021/09/03 06:55:49;;;;;;;18.30;12.10;;;;;;;;;;5094839;28;20471;-71
2021/09/03 06:58:17;;;;;;;22.70;12.47;;;;;;;;;;5083953;28;20535;-71
2021/09/03 07:00:45;;;;;;;16.80;11.73;;;;;;;;;;5085978;28;20542;-71
2021/09/03 07:03:14;;;;;;;19.17;11.60;;;;;;;;;;5090503;28;20473;-71
2021/09/03 07:08:36;;;;;;;19.23;10.70;;;;;;;;;;5085200;28;20876;-72
2021/09/03 07:11:06;;;;;;;16.60;9.63;;;;;;;;;;5088567;28;20573;-70
2021/09/03 07:13:46;;;;;;;18.50;9.33;;;;;;;;;;5090622;28;20454;-71
2021/09/03 07:16:14;;;;;;;22.43;11.70;;;;;;;;;;5092588;28;20463;-70
2021/09/03 07:18:42;;;;;;;19.47;9.77;;;;;;;;;;5092316;28;21045;-70
2021/09/03 07:21:10;;;;;;;16.57;11.90;;;;;;;;;;5078348;28;20547;-70
2021/09/03 07:23:42;;;;;;;21.97;11.67;;;;;;;;;;5094352;28;20964;-70
2021/09/03 07:26:12;;;;;;;16.20;10.93;;;;;;;;;;5093790;28;20463;-72
2021/09/03 07:28:43;;;;;;;18.40;11.00;;;;;;;;;;5094889;28;20452;-71
2021/09/03 07:31:13;;;;;;;18.00;11.93;;;;;;;;;;5095994;28;20491;-71
2021/09/03 07:33:45;;;;;;;21.20;10.70;;;;;;;;;;5100174;28;20458;-72
2021/09/03 07:36:13;;;;;;;19.10;11.00;;;;;;;;;;5099949;28;20582;-71
2021/09/03 07:38:43;;;;;;;21.57;10.80;;;;;;;;;;5098614;28;20450;-73
2021/09/03 07:41:17;;;;;;;19.90;12.10;;;;;;;;;;5098802;28;20455;-71
2021/09/03 07:43:47;;;;;;;19.83;10.10;;;;;;;;;;5097579;28;20478;-71
2021/09/03 07:46:15;;;;;;;12.63;8.10;;;;;;;;;;5077730;28;20892;-71
2021/09/03 07:48:43;;;;;;;16.00;8.97;;;;;;;;;;5079030;28;20487;-71
2021/09/03 07:51:11;;;;;;;12.73;7.50;;;;;;;;;;5077817;28;20493;-71
2021/09/03 07:53:43;;;;;;;11.90;8.47;;;;;;;;;;5078405;28;20452;-71
2021/09/03 07:56:15;;;;;;;18.00;10.50;;;;;;;;;;5090053;28;20474;-71
2021/09/03 07:58:46;;;;;;;12.60;6.50;;;;;;;;;;5096992;28;20910;-71
2021/09/03 08:01:16;;;;;;;10.97;7.10;;;;;;;;;;5095921;28;20467;-71
2021/09/03 08:03:44;;;;;;;13.00;7.93;;;;;;;;;;5076478;28;20441;-72
2021/09/03 08:06:25;;;;;;;11.77;8.00;;;;;;;;;;5093897;28;20468;-72
2021/09/03 08:08:58;;;;;;;12.03;7.87;;;;;;;;;;5091689;28;20454;-69
2021/09/03 08:11:27;;;;;;;17.03;8.60;;;;;;;;;;5095660;28;20590;-71
2021/09/03 08:14:01;;;;;;;10.17;5.10;;;;;;;;;;5092694;28;20463;-70
2021/09/03 08:16:31;;;;;;;12.63;6.13;;;;;;;;;;5078467;28;20452;-71
2021/09/03 08:18:59;;;;;;;16.43;7.67;;;;;;;;;;5090468;28;20467;-72
2021/09/03 08:21:27;;;;;;;9.87;5.70;;;;;;;;;;5099739;28;20476;-69
2021/09/03 08:24:00;;;;;;;14.27;6.90;;;;;;;;;;5090468;28;20448;-70
2021/09/03 08:26:29;;;;;;;17.40;7.00;;;;;;;;;;5085866;28;20452;-70
2021/09/03 08:29:02;;;;;;;12.30;7.40;;;;;;;;;;5093836;28;20468;-71
2021/09/03 08:31:38;;;;;;;19.80;7.37;;;;;;;;;;5091355;28;20480;-71
2021/09/03 08:34:10;;;;;;;12.67;6.47;;;;;;;;;;5097515;28;20451;-71
2021/09/03 08:36:41;;;;;;;13.53;7.53;;;;;;;;;;5082700;28;20845;-70
2021/09/03 08:39:10;;;;;;;18.40;7.80;;;;;;;;;;5088408;28;20512;-71
2021/09/03 08:41:41;;;;;;;12.47;7.47;;;;;;;;;;5095741;28;20573;-71
2021/09/03 08:44:15;;;;;;;15.50;8.43;;;;;;;;;;5094286;28;21075;-71
2021/09/03 08:49:28;;;;;;;17.33;7.43;;;;;;;;;;5075698;28;20432;-70
2021/09/03 08:52:10;;;;;;;17.23;9.90;;;;;;;;;;5077733;28;20487;-70
2021/09/03 08:54:42;;;;;;;12.20;6.67;;;;;;;;;;5078461;28;20452;-70
2021/09/03 09:00:01;;;;;;;19.23;10.93;;;;;;;;;;5045266;28;20470;-70
2021/09/03 09:02:33;;;;;;;14.27;8.40;;;;;;;;;;5077394;28;20526;-72
2021/09/03 09:05:10;;;;;;;13.70;6.57;;;;;;;;;;5076771;28;20513;-73
2021/09/03 09:07:38;;;;;;;14.30;7.90;;;;;;;;;;5076417;28;20653;-71
2021/09/03 09:10:09;;;;;;;19.67;8.67;;;;;;;;;;5088032;28;20462;-71
2021/09/03 09:12:37;;;;;;;14.83;6.80;;;;;;;;;;5095246;28;20582;-70
2021/09/03 09:15:10;;;;;;;10.20;6.70;;;;;;;;;;5088166;28;20827;-70
2021/09/03 09:17:39;;;;;;;14.77;9.10;;;;;;;;;;5074549;28;20992;-71
2021/09/03 09:20:08;;;;;;;17.10;9.90;;;;;;;;;;5076570;28;20544;-71
2021/09/03 09:22:54;;;;;;;15.13;7.87;;;;;;;;;;5109153;27;20462;-71
2021/09/03 09:25:27;;;;;;;21.03;10.00;;;;;;;;;;5080509;28;20538;-71
2021/09/03 09:28:15;;;;;;;16.37;7.37;;;;;;;;;;5087405;28;20895;-71
2021/09/03 09:30:44;;;;;;;9.83;6.17;;;;;;;;;;5083407;28;20487;-71
2021/09/03 09:33:14;;;;;;;12.20;7.30;;;;;;;;;;5092620;28;20460;-71
2021/09/03 09:35:44;;;;;;;15.93;7.47;;;;;;;;;;5092861;28;20451;-71
2021/09/03 09:38:12;;;;;;;12.80;7.13;;;;;;;;;;5092805;27;20460;-70
2021/09/03 09:40:52;;;;;;;11.57;8.67;;;;;;;;;;5084866;28;20447;-71
2021/09/03 09:43:24;;;;;;;19.43;8.03;;;;;;;;;;5088819;28;20493;-71
2021/09/03 09:46:07;;;;;;;16.07;8.00;;;;;;;;;;5093786;28;20465;-72
2021/09/03 09:49:02;;;;;;;13.43;6.30;;;;;;;;;;5085115;28;20459;-72
2021/09/03 09:51:32;;;;;;;12.00;6.07;;;;;;;;;;5087697;28;20486;-72
2021/09/03 09:54:00;;;;;;;14.13;7.50;;;;;;;;;;5086837;28;20998;-72
2021/09/03 09:56:31;;;;;;;20.03;10.40;;;;;;;;;;5090488;28;20459;-72
2021/09/03 09:59:07;;;;;;;12.63;7.20;;;;;;;;;;5082250;28;20764;-71
2021/09/03 10:01:48;;;;;;;13.83;8.37;;;;;;;;;;5087151;28;20824;-73
2021/09/03 10:04:28;;;;;;;16.70;7.40;;;;;;;;;;5073158;28;20462;-71
2021/09/03 10:07:00;;;;;;;12.63;7.83;;;;;;;;;;5074133;28;20860;-73
2021/09/03 10:12:33;;;;;;;14.40;7.40;;;;;;;;;;5089218;28;20502;-73
2021/09/03 10:15:12;;;;;;;11.70;7.87;;;;;;;;;;5094534;28;20874;-72
2021/09/03 10:27:28;;;;;;;17.13;9.73;;;;;;;;;;5075168;28;20491;-74
2021/09/03 10:34:09;;;;;;;;;;;;;;;;;;;;;
2021/09/03 10:40:03;;;;;;;11.63;7.77;;;;;;;;;;5071922;28;20448;-73
2021/09/03 10:43:04;;;;;;;16.33;6.77;;;;;;;;;;5095927;28;20466;-74
2021/09/03 10:45:46;;;;;;;11.20;6.30;;;;;;;;;;5095714;28;20536;-75
2021/09/03 10:48:45;;;;;;;13.20;7.37;;;;;;;;;;5093373;28;20448;-72
2021/09/03 10:51:36;;;;;;;12.27;6.73;;;;;;;;;;5093980;28;20466;-73
2021/09/03 11:03:45;;;;;;;14.97;9.43;;;;;;;;;;5082935;28;20471;-73
2021/09/03 11:06:35;;;;;;;15.43;6.97;;;;;;;;;;5091251;28;20525;-73
2021/09/03 11:09:20;;;;;;;16.67;7.77;;;;;;;;;;5090875;28;20885;-74
2021/09/03 11:12:05;;;;;;;11.07;6.93;;;;;;;;;;5092056;28;20487;-73
2021/09/03 11:14:35;;;;;;;9.80;6.17;;;;;;;;;;5091611;28;20478;-73
2021/09/03 11:17:23;;;;;;;11.87;7.63;;;;;;;;;;5089833;28;20460;-74
2021/09/03 11:20:11;;;;;;;10.07;6.90;;;;;;;;;;5098394;28;20743;-74
2021/09/03 11:22:50;;;;;;;18.07;7.67;;;;;;;;;;5099455;28;20766;-73
2021/09/03 11:25:28;;;;;;;12.70;7.37;;;;;;;;;;5084772;28;20530;-73
2021/09/03 11:27:56;;;;;;;16.73;7.40;;;;;;;;;;5092973;28;20467;-73
2021/09/03 11:30:31;;;;;;;12.17;7.60;;;;;;;;;;5092300;28;20491;-75
2021/09/03 11:33:07;;;;;;;8.57;6.10;;;;;;;;;;5083263;28;20539;-74
2021/09/03 11:35:34;;;;;;;11.93;6.20;;;;;;;;;;5089774;28;20475;-73
2021/09/03 11:38:16;;;;;;;23.73;7.50;;;;;;;;;;5077330;28;20543;-73
2021/09/03 11:40:47;;;;;;;8.70;5.20;;;;;;;;;;5080846;28;20468;-72
2021/09/03 11:46:17;;;;;;;12.10;8.33;;;;;;;;;;5080767;28;20467;-74
2021/09/03 11:49:01;;;;;;;13.13;8.57;;;;;;;;;;5095046;28;20783;-73
2021/09/03 11:52:01;;;;;;;12.10;7.83;;;;;;;;;;5090089;28;20526;-73
2021/09/03 11:58:12;;;;;;;16.93;10.23;;;;;;;;;;5091972;28;20443;-73
2021/09/03 12:00:53;;;;;;;14.87;8.20;;;;;;;;;;5092927;28;20459;-74
2021/09/03 12:03:22;;;;;;;13.63;7.50;;;;;;;;;;5095260;28;20465;-74
2021/09/03 12:05:54;;;;;;;11.50;8.30;;;;;;;;;;5097738;28;20440;-73
2021/09/03 12:08:43;;;;;;;11.60;7.97;;;;;;;;;;5096900;28;20762;-73
2021/09/03 12:14:20;;;;;;;11.80;8.40;;;;;;;;;;5085483;28;20543;-72
2021/09/03 12:16:52;;;;;;;18.50;8.67;;;;;;;;;;5101626;28;20438;-73
2021/09/03 12:19:24;;;;;;;11.00;7.53;;;;;;;;;;5095072;28;20459;-73
2021/09/03 12:21:57;;;;;;;12.50;7.57;;;;;;;;;;5098010;28;20871;-72
2021/09/03 12:24:30;;;;;;;15.10;8.93;;;;;;;;;;5094999;28;20462;-73
2021/09/03 12:30:36;;;;;;;19.57;10.93;;;;;;;;;;5092858;28;20432;-74
2021/09/03 12:33:34;;;;;;;15.30;8.20;;;;;;;;;;5094085;28;20572;-74
2021/09/03 12:36:08;;;;;;;9.83;7.50;;;;;;;;;;5093286;28;20815;-73
2021/09/03 12:38:55;;;;;;;;;;;;;;;;;;;;;
2021/09/03 12:41:28;;;;;;;12.43;8.43;;;;;;;;;;5090554;28;20456;-73
2021/09/03 12:43:57;;;;;;;16.17;7.43;;;;;;;;;;5093840;28;20474;-73
2021/09/03 12:46:29;;;;;;;12.20;7.57;;;;;;;;;;5097394;28;20866;-73
2021/09/03 12:49:09;;;;;;;9.87;7.80;;;;;;;;;;5096067;28;20497;-73
2021/09/03 12:51:41;;;;;;;13.83;9.50;;;;;;;;;;5093216;28;20470;-73
2021/09/03 12:54:10;;;;;;;12.43;8.37;;;;;;;;;;5095915;28;20492;-72
2021/09/03 12:56:39;;;;;;;10.30;7.83;;;;;;;;;;5091251;28;20456;-72
2021/09/03 12:59:15;;;;;;;10.67;7.70;;;;;;;;;;5095502;28;20471;-72
2021/09/03 13:01:47;;;;;;;12.00;9.30;;;;;;;;;;5088407;28;20839;-72
2021/09/03 13:04:18;;;;;;;17.20;8.77;;;;;;;;;;5080222;28;20561;-73
2021/09/03 13:06:48;;;;;;;11.67;7.53;;;;;;;;;;5090482;28;20471;-71
2021/09/03 13:09:19;;;;;;;11.50;9.00;;;;;;;;;;5094132;28;20464;-71
2021/09/03 13:11:47;;;;;;;12.47;7.43;;;;;;;;;;5093456;28;21026;-71
2021/09/03 13:14:15;;;;;;;12.97;8.97;;;;;;;;;;5093800;28;20992;-71
2021/09/03 13:16:44;;;;;;;13.10;8.60;;;;;;;;;;5097309;28;20910;-72
2021/09/03 13:19:13;;;;;;;14.27;9.23;;;;;;;;;;5093000;28;20535;-72
2021/09/03 13:21:41;;;;;;;13.90;9.10;;;;;;;;;;5087226;28;20464;-72
2021/09/03 13:24:09;;;;;;;12.60;7.93;;;;;;;;;;5093318;28;20467;-72
2021/09/03 13:26:47;;;;;;;13.47;8.50;;;;;;;;;;5091013;28;21100;-73
2021/09/03 13:29:16;;;;;;;11.57;7.60;;;;;;;;;;5097966;28;20856;-72
2021/09/03 13:31:51;;;;;;;13.13;8.90;;;;;;;;;;5088490;28;20798;-72
2021/09/03 13:34:24;;;;;;;13.47;8.70;;;;;;;;;;5091301;28;20444;-72
2021/09/03 13:36:54;;;;;;;15.40;9.17;;;;;;;;;;5094419;28;20462;-72
2021/09/03 13:39:23;;;;;;;11.43;8.60;;;;;;;;;;5089838;28;20517;-72
2021/09/03 13:41:55;;;;;;;14.53;9.30;;;;;;;;;;5093854;28;20468;-72
2021/09/03 13:44:36;;;;;;;13.13;8.73;;;;;;;;;;5091822;28;20509;-72
2021/09/03 13:47:07;;;;;;;11.37;8.00;;;;;;;;;;5091248;28;20848;-72
2021/09/03 13:49:35;;;;;;;13.30;8.00;;;;;;;;;;5087094;28;20493;-73
2021/09/03 13:52:03;;;;;;;11.10;7.97;;;;;;;;;;5095745;27;20455;-72
2021/09/03 13:54:30;;;;;;;11.73;8.20;;;;;;;;;;5097267;28;20502;-72
2021/09/03 13:57:02;;;;;;;10.77;7.70;;;;;;;;;;5092418;27;20542;-73
2021/09/03 13:59:30;;;;;;;13.00;7.93;;;;;;;;;;5089666;28;20807;-72
2021/09/03 14:01:58;;;;;;;16.50;7.33;;;;;;;;;;5088491;28;20767;-72
2021/09/03 14:04:26;;;;;;;16.90;9.03;;;;;;;;;;5088536;28;20491;-72
2021/09/03 14:07:00;;;;;;;14.63;8.50;;;;;;;;;;5090954;28;20519;-72
2021/09/03 14:09:31;;;;;;;14.53;8.60;;;;;;;;;;5094549;27;20890;-73
2021/09/03 14:12:12;;;;;;;11.60;6.90;;;;;;;;;;5092511;28;20474;-73
2021/09/03 14:14:53;;;;;;;15.60;8.80;;;;;;;;;;5092211;28;20549;-73
2021/09/03 14:17:21;;;;;;;12.10;7.50;;;;;;;;;;5087889;28;20731;-71
2021/09/03 14:19:49;;;;;;;17.50;9.70;;;;;;;;;;5096757;28;20479;-71
2021/09/03 14:22:17;;;;;;;12.87;9.00;;;;;;;;;;5091838;28;20452;-72
2021/09/03 14:24:46;;;;;;;11.53;7.10;;;;;;;;;;5099702;28;20515;-72
2021/09/03 14:27:15;;;;;;;15.17;8.03;;;;;;;;;;5093722;28;20467;-72
2021/09/03 14:29:43;;;;;;;19.70;8.73;;;;;;;;;;5093821;28;20541;-73
2021/09/03 14:32:14;;;;;;;10.43;6.83;;;;;;;;;;5090545;28;20464;-72
2021/09/03 14:34:45;;;;;;;13.67;8.80;;;;;;;;;;5081669;28;20451;-72
2021/09/03 14:37:13;;;;;;;10.40;7.70;;;;;;;;;;5087114;28;20945;-72
2021/09/03 14:39:45;;;;;;;13.33;8.63;;;;;;;;;;5086597;28;20617;-72
2021/09/03 14:42:13;;;;;;;11.63;7.70;;;;;;;;;;5091627;28;20452;-72
2021/09/03 14:44:44;;;;;;;12.10;6.70;;;;;;;;;;5094038;28;20451;-72
2021/09/03 14:47:15;;;;;;;15.90;8.00;;;;;;;;;;5091987;28;20546;-72
2021/09/03 14:49:44;;;;;;;14.00;8.30;;;;;;;;;;5095840;28;20474;-73
2021/09/03 14:52:12;;;;;;;14.20;9.30;;;;;;;;;;5086682;28;20468;-72
2021/09/03 14:54:41;;;;;;;17.43;8.70;;;;;;;;;;5094694;28;20463;-72
2021/09/03 14:57:18;;;;;;;17.70;9.33;;;;;;;;;;5088697;28;20483;-72
2021/09/03 14:59:48;;;;;;;16.63;10.67;;;;;;;;;;5089114;28;20455;-72
2021/09/03 15:02:18;;;;;;;16.17;11.07;;;;;;;;;;5090248;28;20467;-72
2021/09/03 15:04:46;;;;;;;17.57;9.90;;;;;;;;;;5088331;28;20543;-71
2021/09/03 15:07:20;;;;;;;14.60;10.97;;;;;;;;;;5094507;28;20525;-71
2021/09/03 15:09:51;;;;;;;15.33;11.90;;;;;;;;;;5093891;28;20552;-72
2021/09/03 15:12:20;;;;;;;16.97;10.10;;;;;;;;;;5093365;28;20458;-70
2021/09/03 15:14:52;;;;;;;15.83;10.83;;;;;;;;;;5080572;28;20716;-71
2021/09/03 15:17:23;;;;;;;16.30;9.87;;;;;;;;;;5085917;28;20460;-72
2021/09/03 15:19:50;;;;;;;12.47;8.50;;;;;;;;;;5090968;28;20451;-71
2021/09/03 15:22:18;;;;;;;13.30;9.27;;;;;;;;;;5081985;28;20930;-71
2021/09/03 15:24:49;;;;;;;19.00;10.50;;;;;;;;;;5081908;28;20452;-71
2021/09/03 15:27:17;;;;;;;15.53;9.93;;;;;;;;;;5087247;28;20875;-71
2021/09/03 15:29:44;;;;;;;20.23;11.50;;;;;;;;;;5085202;28;21014;-71
2021/09/03 15:32:14;;;;;;;23.50;11.80;;;;;;;;;;5088308;28;20488;-71
2021/09/03 15:34:44;;;;;;;14.43;10.57;;;;;;;;;;5078367;28;20560;-71
2021/09/03 15:37:12;;;;;;;19.90;12.33;;;;;;;;;;5085656;28;20467;-71
2021/09/03 15:39:40;;;;;;;23.80;10.67;;;;;;;;;;5077470;28;20448;-71
2021/09/03 15:42:11;;;;;;;13.93;10.10;;;;;;;;;;5081604;28;20464;-71
2021/09/03 15:44:39;;;;;;;15.00;10.27;;;;;;;;;;5087904;28;20751;-70